Time;durP1;ratioP1;P1;durP2;ratioP2;P2;SDS_P1;SDS_P2;PMS_P1;PMS_P2;Temp;Humidity;BMP_temperature;BMP_pressure;BME280_temperature;BME280_humidity;BME280_pressure;Samples;Min_cycle;Max_cycle;Signal;HPM_P1;HPM_P2
2023/03/13 00:01:36;;;;;;;12.77;4.40;;;8.80;99.90;;;;;;5018598;28;20060;-76
2023/03/13 00:04:02;;;;;;;21.23;4.68;;;8.80;99.90;;;;;;5063689;28;20059;-76
2023/03/13 00:06:31;;;;;;;13.00;3.83;;;8.80;99.90;;;;;;5052372;28;20492;-77
2023/03/13 00:08:59;;;;;;;13.48;3.65;;;8.80;99.90;;;;;;5028750;28;20383;-76
2023/03/13 00:11:26;;;;;;;17.20;4.63;;;8.80;99.90;;;;;;5052276;28;20053;-77
2023/03/13 00:13:56;;;;;;;17.67;5.03;;;8.80;99.90;;;;;;5061067;28;20052;-75
2023/03/13 00:16:22;;;;;;;11.00;3.42;;;8.70;99.90;;;;;;5024197;28;20072;-78
2023/03/13 00:18:50;;;;;;;16.42;3.95;;;8.70;99.90;;;;;;5054003;28;20406;-77
2023/03/13 00:21:17;;;;;;;15.07;4.00;;;8.70;99.90;;;;;;5048443;28;20471;-77
2023/03/13 00:23:43;;;;;;;15.02;3.75;;;8.70;99.90;;;;;;5062044;28;20054;-76
2023/03/13 00:26:11;;;;;;;22.10;5.88;;;8.70;99.90;;;;;;5045682;28;20040;-76
2023/03/13 00:28:39;;;;;;;13.27;4.05;;;8.70;99.90;;;;;;5053844;28;20393;-76
2023/03/13 00:31:07;;;;;;;13.68;3.83;;;8.70;99.90;;;;;;5029639;28;20568;-77
2023/03/13 00:33:39;;;;;;;13.23;4.10;;;8.70;99.90;;;;;;5048515;28;20045;-75
2023/03/13 00:36:08;;;;;;;11.57;3.95;;;8.70;99.90;;;;;;5050485;28;20045;-77
2023/03/13 00:38:34;;;;;;;9.80;2.72;;;8.70;99.90;;;;;;5043977;28;20060;-78
2023/03/13 00:41:11;;;;;;;15.15;4.35;;;8.70;99.90;;;;;;5061088;28;20053;-76
2023/03/13 00:43:38;;;;;;;11.80;4.38;;;8.70;99.90;;;;;;5047722;28;20131;-77
2023/03/13 00:46:04;;;;;;;11.60;3.47;;;8.60;99.90;;;;;;5070540;28;20053;-77
2023/03/13 00:48:30;;;;;;;11.55;3.72;;;8.60;99.90;;;;;;5058251;28;20048;-77
2023/03/13 00:50:56;;;;;;;14.80;3.92;;;8.60;99.90;;;;;;5036445;28;20049;-76
2023/03/13 00:53:22;;;;;;;12.40;3.22;;;8.60;99.90;;;;;;5050496;28;20044;-75
2023/03/13 00:56:05;;;;;;;14.50;4.88;;;8.50;99.90;;;;;;5055243;28;20040;-77
2023/03/13 00:58:34;;;;;;;9.45;2.95;;;8.50;99.90;;;;;;5065905;28;20490;-77
2023/03/13 01:01:15;;;;;;;12.45;3.75;;;8.50;99.90;;;;;;5047040;28;20047;-79
2023/03/13 01:03:43;;;;;;;10.60;4.13;;;8.50;99.90;;;;;;5051779;28;20080;-78
2023/03/13 01:06:13;;;;;;;9.57;4.20;;;8.50;99.90;;;;;;5069038;28;20044;-77
2023/03/13 01:08:39;;;;;;;8.63;3.53;;;8.50;99.90;;;;;;5060274;28;20053;-77
2023/03/13 01:11:17;;;;;;;15.25;3.63;;;8.50;99.90;;;;;;5030872;28;20061;-78
2023/03/13 01:13:43;;;;;;;13.68;3.63;;;8.50;99.90;;;;;;5048670;28;20137;-75
2023/03/13 01:16:15;;;;;;;9.73;3.70;;;8.50;99.90;;;;;;5016245;28;20049;-78
2023/03/13 01:18:43;;;;;;;10.07;3.22;;;8.50;99.90;;;;;;5058453;28;20382;-78
2023/03/13 01:21:10;;;;;;;10.13;3.45;;;8.50;99.90;;;;;;5071525;28;20068;-76
2023/03/13 01:23:36;;;;;;;15.25;4.00;;;8.50;99.90;;;;;;5071352;28;20128;-76
2023/03/13 01:26:04;;;;;;;10.43;3.20;;;8.40;99.90;;;;;;5060286;28;20472;-77
2023/03/13 01:28:30;;;;;;;13.38;3.70;;;8.40;99.90;;;;;;5001188;28;20406;-75
2023/03/13 01:30:55;;;;;;;14.90;4.32;;;8.50;99.90;;;;;;5045320;28;20056;-75
2023/03/13 01:33:21;;;;;;;9.18;3.58;;;8.40;99.90;;;;;;5039492;28;20128;-75
2023/03/13 01:35:47;;;;;;;13.48;3.63;;;8.50;99.90;;;;;;5032369;28;20051;-79
2023/03/13 01:38:13;;;;;;;15.00;3.15;;;8.50;99.90;;;;;;5040043;28;20123;-81
2023/03/13 01:40:47;;;;;;;12.05;3.45;;;8.50;99.90;;;;;;5046702;28;20489;-76
2023/03/13 01:43:27;;;;;;;11.27;3.33;;;8.50;99.90;;;;;;5058084;28;20477;-77
2023/03/13 01:46:12;;;;;;;11.90;3.80;;;8.50;99.90;;;;;;5041112;28;20057;-77
2023/03/13 01:49:05;;;;;;;12.65;2.60;;;8.50;99.90;;;;;;5038666;28;20048;-76
2023/03/13 01:51:40;;;;;;;10.38;3.50;;;8.50;99.90;;;;;;5035936;28;20516;-79
2023/03/13 01:54:28;;;;;;;14.60;3.67;;;8.50;99.90;;;;;;5035826;28;20120;-75
2023/03/13 01:57:00;;;;;;;11.55;4.30;;;8.50;99.90;;;;;;5035893;28;20098;-75
2023/03/13 01:59:30;;;;;;;9.27;3.35;;;8.50;99.90;;;;;;5060420;28;20431;-75
2023/03/13 02:02:00;;;;;;;11.98;4.03;;;8.60;99.90;;;;;;5053855;28;20064;-77
2023/03/13 02:04:33;;;;;;;12.50;3.35;;;8.60;99.90;;;;;;5045736;28;20432;-76
2023/03/13 02:07:04;;;;;;;12.43;3.28;;;8.60;99.90;;;;;;5040676;28;20060;-75
2023/03/13 02:09:33;;;;;;;8.60;3.08;;;8.60;99.90;;;;;;5036190;28;20052;-76
2023/03/13 02:12:02;;;;;;;10.77;3.20;;;8.70;99.90;;;;;;5053020;28;20071;-75
2023/03/13 02:14:31;;;;;;;15.93;4.30;;;8.70;99.90;;;;;;5035636;28;20040;-77
2023/03/13 02:16:57;;;;;;;10.52;3.33;;;8.60;99.90;;;;;;5050755;28;20049;-75
2023/03/13 02:19:41;;;;;;;14.68;3.10;;;8.60;99.90;;;;;;5051707;28;20642;-76
2023/03/13 02:22:22;;;;;;;11.43;3.63;;;8.70;99.90;;;;;;5035999;28;20067;-76
2023/03/13 02:25:14;;;;;;;12.70;3.60;;;8.60;99.90;;;;;;5051454;28;20095;-79
2023/03/13 02:27:42;;;;;;;10.27;3.03;;;8.60;99.90;;;;;;5035233;28;20393;-77
2023/03/13 02:30:08;;;;;;;6.55;2.90;;;8.60;99.90;;;;;;5035696;28;20067;-78
2023/03/13 02:32:35;;;;;;;8.85;3.53;;;8.50;99.90;;;;;;5052691;28;20508;-77
2023/03/13 02:35:08;;;;;;;7.22;2.95;;;8.50;99.90;;;;;;5047856;28;20045;-76
2023/03/13 02:37:35;;;;;;;12.25;3.63;;;8.50;99.90;;;;;;5024597;28;20114;-76
2023/03/13 02:40:08;;;;;;;11.40;4.40;;;8.50;99.90;;;;;;5053104;28;20049;-76
2023/03/13 02:42:37;;;;;;;8.55;3.40;;;8.60;99.90;;;;;;5051459;28;20045;-77
2023/03/13 02:45:03;;;;;;;8.35;3.20;;;8.60;99.90;;;;;;5052263;28;20053;-75
2023/03/13 02:47:29;;;;;;;6.75;2.95;;;8.60;99.90;;;;;;5051257;28;20037;-76
2023/03/13 02:49:55;;;;;;;8.00;2.70;;;8.60;99.90;;;;;;5068315;28;20094;-75
2023/03/13 02:52:30;;;;;;;6.40;3.13;;;8.60;99.90;;;;;;5071305;28;20135;-75
2023/03/13 02:55:03;;;;;;;8.77;3.05;;;8.60;99.90;;;;;;5060532;28;20136;-76
2023/03/13 02:57:30;;;;;;;8.57;2.90;;;8.60;99.90;;;;;;5034772;28;20132;-75
2023/03/13 02:59:56;;;;;;;10.18;3.47;;;8.60;99.90;;;;;;5001933;28;20066;-76
2023/03/13 03:02:22;;;;;;;6.40;2.90;;;8.70;99.90;;;;;;5052588;28;20053;-77
2023/03/13 03:04:48;;;;;;;5.35;2.47;;;8.70;99.90;;;;;;5039197;28;20128;-76
2023/03/13 03:07:13;;;;;;;3.63;2.30;;;8.70;99.90;;;;;;5051413;28;20056;-75
2023/03/13 03:09:39;;;;;;;7.13;3.30;;;8.70;99.90;;;;;;5052170;28;20055;-75
2023/03/13 03:12:05;;;;;;;4.60;2.22;;;8.70;99.90;;;;;;5051674;28;20041;-75
2023/03/13 03:14:31;;;;;;;7.95;2.75;;;8.70;99.90;;;;;;5063568;28;20041;-75
2023/03/13 03:16:56;;;;;;;6.40;2.33;;;8.80;99.90;;;;;;5020323;28;20143;-77
2023/03/13 03:19:22;;;;;;;4.70;2.28;;;8.80;99.90;;;;;;5052164;28;20056;-76
2023/03/13 03:21:48;;;;;;;4.85;3.20;;;8.80;99.90;;;;;;5034496;28;20048;-77
2023/03/13 03:24:14;;;;;;;6.75;2.40;;;8.80;99.90;;;;;;5052579;28;20117;-77
2023/03/13 03:26:40;;;;;;;4.80;2.63;;;8.80;99.90;;;;;;5051658;28;20508;-77
2023/03/13 03:29:07;;;;;;;7.32;2.42;;;8.90;99.90;;;;;;5034345;28;20057;-75
2023/03/13 03:31:33;;;;;;;4.95;1.88;;;8.90;99.90;;;;;;5034128;28;20083;-74
2023/03/13 03:33:59;;;;;;;6.97;2.35;;;8.90;99.90;;;;;;5051711;28;20057;-76
2023/03/13 03:36:25;;;;;;;4.57;2.67;;;8.90;99.90;;;;;;5034305;28;20546;-80
2023/03/13 03:38:51;;;;;;;4.50;2.40;;;8.90;99.90;;;;;;5022272;28;20139;-76
2023/03/13 03:41:18;;;;;;;4.03;2.40;;;9.00;99.90;;;;;;5070409;28;20133;-82
2023/03/13 03:43:44;;;;;;;4.03;2.53;;;9.10;99.90;;;;;;5060946;28;20505;-75
2023/03/13 03:46:10;;;;;;;5.57;2.70;;;9.10;99.90;;;;;;5067451;28;20125;-78
2023/03/13 03:48:36;;;;;;;4.30;2.00;;;9.10;99.90;;;;;;5042096;28;20052;-76
2023/03/13 03:51:02;;;;;;;4.45;2.55;;;9.20;99.90;;;;;;5023672;28;20056;-80
2023/03/13 03:53:28;;;;;;;4.65;2.78;;;9.20;99.90;;;;;;5043787;28;20102;-76
2023/03/13 03:55:54;;;;;;;5.55;2.65;;;9.20;99.90;;;;;;5041535;28;20052;-76
2023/03/13 03:58:20;;;;;;;5.53;2.30;;;9.30;99.90;;;;;;5034264;28;20053;-75
2023/03/13 04:00:47;;;;;;;6.22;2.63;;;9.30;99.90;;;;;;5025333;28;20531;-73
2023/03/13 04:03:13;;;;;;;4.20;2.15;;;9.30;99.90;;;;;;5070792;28;20405;-73
2023/03/13 04:05:40;;;;;;;3.95;2.22;;;9.30;99.90;;;;;;5051195;28;20046;-74
2023/03/13 04:08:06;;;;;;;6.43;3.00;;;9.30;99.90;;;;;;5033163;28;20044;-74
2023/03/13 04:10:32;;;;;;;3.88;2.38;;;9.30;99.90;;;;;;5033754;28;20053;-76
2023/03/13 04:12:58;;;;;;;6.68;3.08;;;9.40;99.90;;;;;;5047074;28;20049;-76
2023/03/13 04:15:24;;;;;;;5.18;2.70;;;9.40;99.90;;;;;;5033496;28;20045;-75
2023/03/13 04:17:49;;;;;;;5.32;3.38;;;9.50;99.90;;;;;;5064476;28;20045;-80
2023/03/13 04:20:15;;;;;;;3.85;3.08;;;9.50;99.90;;;;;;5051250;28;20056;-77
2023/03/13 04:22:42;;;;;;;4.25;2.85;;;9.50;99.90;;;;;;5051092;28;20053;-77
2023/03/13 04:25:08;;;;;;;3.80;2.47;;;9.60;99.90;;;;;;5050983;28;20448;-77
2023/03/13 04:27:34;;;;;;;4.20;2.67;;;9.60;99.90;;;;;;5050836;28;20052;-74
2023/03/13 04:30:00;;;;;;;6.28;3.33;;;9.60;99.90;;;;;;5033681;28;20103;-76
2023/03/13 04:32:26;;;;;;;3.80;2.65;;;9.60;99.90;;;;;;5007144;28;20118;-76
2023/03/13 04:34:52;;;;;;;4.05;2.83;;;9.60;99.90;;;;;;5026927;28;20178;-76
2023/03/13 04:37:18;;;;;;;5.18;2.80;;;9.70;99.90;;;;;;5038584;28;20207;-75
2023/03/13 04:39:44;;;;;;;5.47;2.72;;;9.70;99.90;;;;;;5059082;28;20053;-75
2023/03/13 04:42:10;;;;;;;4.93;3.45;;;9.80;99.90;;;;;;5029970;28;20126;-77
2023/03/13 04:44:36;;;;;;;5.63;3.33;;;9.80;99.90;;;;;;5050888;28;20514;-75
2023/03/13 04:47:02;;;;;;;5.63;3.28;;;9.80;99.90;;;;;;5044257;28;20124;-77
2023/03/13 04:49:28;;;;;;;5.05;3.30;;;9.90;99.90;;;;;;5039320;28;20124;-77
2023/03/13 04:51:54;;;;;;;4.53;2.85;;;9.90;99.90;;;;;;5062631;28;20131;-76
2023/03/13 04:54:20;;;;;;;3.95;2.70;;;9.90;99.90;;;;;;5042268;28;20048;-76
2023/03/13 04:56:46;;;;;;;6.25;3.03;;;10.00;99.90;;;;;;5050731;28;20064;-77
2023/03/13 04:59:12;;;;;;;4.65;3.25;;;10.00;99.90;;;;;;5032638;28;20045;-79
2023/03/13 05:01:39;;;;;;;4.10;2.90;;;10.00;99.90;;;;;;5050711;28;20379;-77
2023/03/13 05:04:05;;;;;;;5.13;3.10;;;10.00;99.90;;;;;;5028363;28;20049;-80
2023/03/13 05:06:30;;;;;;;5.53;3.55;;;10.10;99.90;;;;;;5050377;28;20041;-75
2023/03/13 05:08:56;;;;;;;4.13;3.00;;;10.10;99.90;;;;;;5016672;28;20463;-74
2023/03/13 05:11:22;;;;;;;4.88;2.83;;;10.10;99.90;;;;;;5050257;28;20055;-76
2023/03/13 05:13:48;;;;;;;6.50;3.40;;;10.20;99.90;;;;;;5044578;28;20044;-75
2023/03/13 05:16:13;;;;;;;4.53;3.00;;;10.20;99.90;;;;;;5053534;28;20477;-73
2023/03/13 05:18:39;;;;;;;4.13;3.03;;;10.30;99.90;;;;;;5054250;28;20083;-75
2023/03/13 05:21:05;;;;;;;5.20;3.10;;;10.30;99.90;;;;;;5036817;28;20045;-75
2023/03/13 05:23:31;;;;;;;4.95;2.80;;;10.30;99.90;;;;;;5036832;28;20107;-75
2023/03/13 05:25:57;;;;;;;5.18;3.22;;;10.30;99.90;;;;;;5019939;28;20045;-76
2023/03/13 05:28:22;;;;;;;4.50;2.78;;;10.40;99.90;;;;;;5036820;28;20096;-77
2023/03/13 05:30:48;;;;;;;5.15;3.35;;;10.40;99.90;;;;;;5049785;28;20107;-77
2023/03/13 05:33:14;;;;;;;4.88;3.13;;;10.40;99.90;;;;;;5036423;28;20538;-75
2023/03/13 05:35:40;;;;;;;4.07;2.83;;;10.40;99.90;;;;;;5019924;28;20052;-75
2023/03/13 05:38:05;;;;;;;5.38;3.30;;;10.40;99.90;;;;;;5045766;28;20046;-76
2023/03/13 05:40:31;;;;;;;5.40;3.30;;;10.50;99.90;;;;;;5055644;28;20045;-76
2023/03/13 05:42:57;;;;;;;5.53;3.88;;;10.50;99.90;;;;;;5054974;28;20499;-76
2023/03/13 05:45:22;;;;;;;5.25;3.80;;;10.60;99.90;;;;;;5054905;28;20107;-75
2023/03/13 05:47:48;;;;;;;5.68;3.38;;;10.60;99.90;;;;;;5069418;28;20044;-77
2023/03/13 05:50:14;;;;;;;6.60;3.45;;;10.60;99.90;;;;;;5035561;28;20063;-76
2023/03/13 05:52:39;;;;;;;5.78;4.07;;;10.70;99.90;;;;;;5039414;28;20372;-75
2023/03/13 05:55:05;;;;;;;7.03;4.75;;;10.70;99.90;;;;;;5040059;28;20112;-77
2023/03/13 05:57:31;;;;;;;8.55;4.15;;;10.70;99.90;;;;;;5030336;28;20046;-75
2023/03/13 05:59:58;;;;;;;7.28;3.67;;;10.70;99.90;;;;;;5017121;28;20057;-76
2023/03/13 06:02:24;;;;;;;6.05;4.65;;;10.70;99.90;;;;;;5053641;28;20048;-76
2023/03/13 06:04:49;;;;;;;8.57;4.20;;;10.80;99.90;;;;;;5063993;28;20085;-75
2023/03/13 06:07:15;;;;;;;6.57;4.10;;;10.80;99.90;;;;;;5039617;28;20081;-75
2023/03/13 06:09:41;;;;;;;5.32;4.50;;;10.80;99.90;;;;;;5035358;28;20057;-76
2023/03/13 06:12:08;;;;;;;6.28;4.13;;;10.90;99.90;;;;;;5035229;28;20056;-77
2023/03/13 06:14:34;;;;;;;7.72;4.45;;;10.90;99.90;;;;;;5053515;28;20050;-75
2023/03/13 06:16:59;;;;;;;6.03;4.43;;;10.90;99.90;;;;;;5053091;28;20041;-77
2023/03/13 06:19:25;;;;;;;7.65;4.68;;;10.90;99.90;;;;;;5032436;28;20542;-76
2023/03/13 06:21:51;;;;;;;6.30;4.75;;;11.00;99.90;;;;;;5044771;28;20056;-77
2023/03/13 06:24:17;;;;;;;6.57;4.63;;;11.00;99.90;;;;;;5053251;28;20068;-78
2023/03/13 06:26:43;;;;;;;7.38;4.60;;;11.10;99.90;;;;;;5052310;28;20402;-76
2023/03/13 06:29:10;;;;;;;6.60;4.78;;;11.20;99.90;;;;;;5059702;28;20055;-78
2023/03/13 06:31:35;;;;;;;5.15;4.07;;;11.20;99.90;;;;;;5072719;28;20073;-76
2023/03/13 06:34:01;;;;;;;8.73;4.60;;;11.30;99.90;;;;;;5054991;28;20087;-78
2023/03/13 06:36:27;;;;;;;7.82;4.72;;;11.30;99.90;;;;;;5072666;28;20284;-78
2023/03/13 06:38:52;;;;;;;8.02;4.78;;;11.30;99.90;;;;;;5053324;28;20064;-78
2023/03/13 06:41:18;;;;;;;7.38;4.97;;;11.30;99.90;;;;;;5053198;28;20548;-76
2023/03/13 06:43:44;;;;;;;6.00;4.15;;;11.30;99.90;;;;;;5051963;28;20518;-74
2023/03/13 06:46:22;;;;;;;6.53;4.43;;;11.40;99.90;;;;;;5034625;28;20052;-77
2023/03/13 06:48:49;;;;;;;6.30;3.95;;;11.40;99.90;;;;;;5035128;28;20041;-76
2023/03/13 06:51:17;;;;;;;5.30;4.07;;;11.50;99.90;;;;;;5052621;28;20146;-76
2023/03/13 06:53:42;;;;;;;7.30;4.32;;;11.50;99.90;;;;;;5052936;28;20143;-76
2023/03/13 06:56:09;;;;;;;8.35;4.00;;;11.60;99.90;;;;;;5052755;28;20045;-76
2023/03/13 06:58:35;;;;;;;5.45;3.75;;;11.60;99.90;;;;;;5034937;28;20041;-79
2023/03/13 07:01:09;;;;;;;6.93;3.90;;;11.70;99.90;;;;;;5049649;28;20498;-79
2023/03/13 07:03:36;;;;;;;5.22;3.67;;;11.70;99.90;;;;;;5044719;28;20052;-78
2023/03/13 07:06:02;;;;;;;5.45;3.50;;;11.80;99.90;;;;;;5071232;28;20044;-77
2023/03/13 07:08:29;;;;;;;6.78;3.42;;;11.80;99.90;;;;;;5052389;28;20041;-78
2023/03/13 07:10:59;;;;;;;6.40;3.50;;;11.90;99.90;;;;;;5015694;28;20049;-75
2023/03/13 07:13:25;;;;;;;7.88;3.88;;;11.90;99.90;;;;;;5050917;28;20048;-76
2023/03/13 07:15:50;;;;;;;6.47;3.40;;;12.00;99.90;;;;;;5034723;28;20088;-76
2023/03/13 07:18:16;;;;;;;6.03;3.13;;;12.00;99.90;;;;;;5052421;28;20057;-75
2023/03/13 07:20:43;;;;;;;6.13;4.10;;;12.00;99.90;;;;;;5052149;28;20055;-76
2023/03/13 07:23:08;;;;;;;5.95;3.30;;;12.00;99.90;;;;;;5034242;28;20124;-77
2023/03/13 07:25:34;;;;;;;12.07;4.88;;;12.00;99.90;;;;;;5034666;28;20124;-76
2023/03/13 07:28:00;;;;;;;7.00;3.25;;;12.00;99.90;;;;;;5039843;28;20482;-77
2023/03/13 07:30:26;;;;;;;7.95;3.33;;;12.10;99.90;;;;;;5030920;28;20073;-78
2023/03/13 07:32:52;;;;;;;6.13;2.85;;;12.10;99.90;;;;;;5051639;28;20502;-76
2023/03/13 07:35:18;;;;;;;4.78;3.10;;;12.10;99.90;;;;;;5059612;28;20036;-75
2023/03/13 07:37:44;;;;;;;4.15;2.72;;;12.20;99.90;;;;;;5065032;28;20047;-76
2023/03/13 07:40:11;;;;;;;5.75;2.45;;;12.20;99.90;;;;;;5040224;28;20390;-76
2023/03/13 07:42:40;;;;;;;4.43;2.83;;;12.20;99.90;;;;;;5022806;28;20477;-81
2023/03/13 07:45:07;;;;;;;6.40;2.35;;;12.30;99.90;;;;;;5044305;28;20069;-75
2023/03/13 07:47:36;;;;;;;4.90;2.80;;;12.30;99.90;;;;;;5062462;28;20527;-78
2023/03/13 07:50:02;;;;;;;4.18;2.88;;;12.30;99.90;;;;;;5037448;28;20383;-76
2023/03/13 07:52:28;;;;;;;4.45;2.70;;;12.30;99.90;;;;;;5071481;28;20567;-75
2023/03/13 07:54:53;;;;;;;5.47;3.15;;;12.30;99.90;;;;;;5054189;28;20052;-76
2023/03/13 07:57:20;;;;;;;6.35;3.13;;;12.30;99.90;;;;;;5071795;28;20040;-77
2023/03/13 07:59:45;;;;;;;3.60;2.80;;;12.30;99.90;;;;;;5053820;28;20070;-76
2023/03/13 08:02:12;;;;;;;5.10;2.58;;;12.30;99.90;;;;;;5058736;28;20091;-76
2023/03/13 08:04:39;;;;;;;6.22;2.95;;;12.40;99.90;;;;;;4997634;28;20060;-77
2023/03/13 08:07:11;;;;;;;5.43;3.42;;;12.30;99.90;;;;;;5070357;28;20519;-78
2023/03/13 08:09:37;;;;;;;4.70;2.90;;;12.40;99.90;;;;;;5047464;28;20049;-76
2023/03/13 08:12:03;;;;;;;6.85;3.60;;;12.30;99.90;;;;;;5031957;28;20143;-75
2023/03/13 08:14:28;;;;;;;5.03;2.83;;;12.20;99.90;;;;;;5035966;28;20052;-78
2023/03/13 08:16:54;;;;;;;4.85;3.00;;;12.10;99.90;;;;;;5050463;28;20052;-76
2023/03/13 08:19:20;;;;;;;6.22;2.78;;;12.00;99.90;;;;;;5056729;28;20044;-76
2023/03/13 08:21:45;;;;;;;7.07;3.05;;;12.00;99.90;;;;;;5051050;28;20056;-78
2023/03/13 08:24:11;;;;;;;5.22;2.97;;;11.80;99.90;;;;;;5046789;28;20593;-77
2023/03/13 08:26:40;;;;;;;6.18;3.53;;;11.70;99.90;;;;;;5016245;28;20455;-79
2023/03/13 08:29:09;;;;;;;8.98;3.53;;;11.70;99.90;;;;;;5050258;28;20052;-80
2023/03/13 08:31:38;;;;;;;5.80;2.95;;;11.70;99.90;;;;;;5047951;28;20115;-77
2023/03/13 08:34:03;;;;;;;5.95;3.30;;;11.60;99.90;;;;;;5032930;28;20087;-77
2023/03/13 08:36:35;;;;;;;5.18;2.78;;;11.70;99.90;;;;;;5050436;28;20084;-82
2023/03/13 08:39:09;;;;;;;4.43;2.50;;;11.70;99.90;;;;;;5050142;28;20549;-80
2023/03/13 08:41:35;;;;;;;3.30;2.35;;;11.70;99.90;;;;;;5044954;28;20041;-79
2023/03/13 08:44:03;;;;;;;3.72;2.63;;;11.80;99.90;;;;;;5041846;28;20092;-81
2023/03/13 08:46:29;;;;;;;5.28;2.40;;;12.00;99.90;;;;;;5031331;28;20048;-83
2023/03/13 08:48:55;;;;;;;3.83;2.50;;;12.10;99.90;;;;;;5050338;28;20220;-81
2023/03/13 08:51:23;;;;;;;3.53;2.05;;;12.20;99.90;;;;;;5014982;28;20052;-80
2023/03/13 08:53:49;;;;;;;3.80;2.25;;;12.20;99.90;;;;;;5049878;28;20374;-79
2023/03/13 08:56:19;;;;;;;4.35;1.95;;;12.30;99.90;;;;;;5032535;28;20048;-81
2023/03/13 08:58:49;;;;;;;5.10;2.17;;;12.30;99.90;;;;;;5050002;28;20053;-80
2023/03/13 09:01:15;;;;;;;5.47;1.90;;;12.30;99.90;;;;;;5032433;28;20119;-80
2023/03/13 09:03:42;;;;;;;2.83;1.60;;;12.40;99.90;;;;;;5032316;28;20056;-78
2023/03/13 09:06:09;;;;;;;2.33;1.42;;;12.50;99.90;;;;;;5051062;28;20041;-78
2023/03/13 09:08:35;;;;;;;2.28;1.25;;;12.70;99.90;;;;;;5016570;28;20102;-75
2023/03/13 09:11:07;;;;;;;3.00;1.48;;;12.80;99.90;;;;;;5032791;28;20095;-75
2023/03/13 09:13:34;;;;;;;2.83;1.20;;;13.00;99.90;;;;;;5021207;28;20057;-75
2023/03/13 09:16:03;;;;;;;2.47;1.27;;;13.10;99.90;;;;;;5020021;28;20060;-75
2023/03/13 09:18:29;;;;;;;2.45;1.17;;;13.30;99.90;;;;;;5032565;28;20052;-78
2023/03/13 09:20:54;;;;;;;3.75;1.70;;;13.50;99.90;;;;;;5055233;28;20057;-81
2023/03/13 09:23:22;;;;;;;2.58;1.40;;;13.50;99.90;;;;;;5032415;28;20124;-77
2023/03/13 09:25:50;;;;;;;2.88;1.40;;;13.50;99.90;;;;;;5032059;28;20114;-77
2023/03/13 09:28:16;;;;;;;3.45;1.13;;;13.40;99.90;;;;;;5031375;28;20502;-77
2023/03/13 09:30:42;;;;;;;3.30;1.27;;;13.30;99.90;;;;;;5050132;28;20128;-86
2023/03/13 09:33:08;;;;;;;2.47;1.15;;;13.30;99.90;;;;;;5050447;28;20116;-76
2023/03/13 09:35:33;;;;;;;1.98;1.08;;;13.30;99.90;;;;;;5049864;28;20056;-78
2023/03/13 09:37:59;;;;;;;4.55;1.35;;;13.20;99.90;;;;;;5031759;28;20048;-78
2023/03/13 09:40:26;;;;;;;2.15;1.55;;;13.10;99.90;;;;;;5032429;28;20051;-77
2023/03/13 09:42:56;;;;;;;2.42;1.15;;;13.10;99.90;;;;;;5053437;28;20418;-80
2023/03/13 09:45:37;;;;;;;2.97;1.00;;;13.00;99.90;;;;;;5046931;28;20057;-80
2023/03/13 09:48:10;;;;;;;2.85;1.52;;;13.10;99.90;;;;;;5048944;28;20091;-76
2023/03/13 09:50:41;;;;;;;2.80;1.20;;;13.10;99.90;;;;;;5030684;28;20084;-79
2023/03/13 09:53:14;;;;;;;4.10;1.30;;;13.10;99.90;;;;;;5031678;28;20059;-77
2023/03/13 09:55:43;;;;;;;2.40;1.58;;;13.20;99.90;;;;;;5032368;28;20049;-76
2023/03/13 09:58:21;;;;;;;3.70;1.10;;;13.20;99.90;;;;;;5045725;28;20106;-76
2023/03/13 10:00:53;;;;;;;2.75;1.10;;;13.20;99.90;;;;;;5032239;28;20049;-78
2023/03/13 10:03:24;;;;;;;2.78;1.15;;;13.30;99.90;;;;;;5052751;28;20126;-78
2023/03/13 10:05:56;;;;;;;2.80;1.20;;;13.30;99.90;;;;;;5035652;28;20080;-78
2023/03/13 10:08:24;;;;;;;3.30;1.20;;;13.30;99.90;;;;;;5035671;28;20057;-81
2023/03/13 10:11:15;;;;;;;1.70;0.93;;;13.30;99.90;;;;;;5019375;28;20441;-79
2023/03/13 10:13:49;;;;;;;3.05;1.20;;;13.40;99.90;;;;;;5035249;28;20043;-77
2023/03/13 10:16:41;;;;;;;4.43;1.25;;;13.40;99.90;;;;;;5035424;28;20563;-78
2023/03/13 10:19:15;;;;;;;3.70;1.20;;;13.60;99.90;;;;;;5036555;28;20497;-78
2023/03/13 10:21:43;;;;;;;2.55;1.00;;;13.80;99.90;;;;;;5055465;28;20049;-78
2023/03/13 10:24:33;;;;;;;3.40;1.10;;;13.70;99.90;;;;;;5038238;28;20048;-78
2023/03/13 10:26:59;;;;;;;3.15;1.40;;;13.70;99.90;;;;;;5035670;28;20045;-77
2023/03/13 10:29:26;;;;;;;1.92;1.00;;;13.70;99.90;;;;;;5053436;28;20142;-78
2023/03/13 10:32:15;;;;;;;4.43;1.23;;;14.00;99.90;;;;;;5052760;28;20049;-77
2023/03/13 10:34:59;;;;;;;2.78;1.00;;;14.10;99.90;;;;;;5035284;28;20048;-77
2023/03/13 10:37:31;;;;;;;2.05;1.20;;;14.10;99.90;;;;;;5029886;28;20394;-78
2023/03/13 10:40:25;;;;;;;2.20;1.10;;;14.00;99.90;;;;;;5035427;28;20058;-77
2023/03/13 10:42:58;;;;;;;3.67;1.40;;;14.00;99.90;;;;;;5049510;28;20106;-78
2023/03/13 10:45:24;;;;;;;3.42;1.40;;;14.00;99.90;;;;;;5018956;28;20108;-78
2023/03/13 10:47:54;;;;;;;4.60;1.60;;;14.00;99.90;;;;;;5051536;28;20037;-78
2023/03/13 10:50:23;;;;;;;3.47;1.10;;;14.00;99.90;;;;;;5034826;28;20048;-80
2023/03/13 10:52:49;;;;;;;3.53;1.42;;;13.90;99.90;;;;;;5034820;28;20047;-78
2023/03/13 10:55:21;;;;;;;3.45;1.48;;;14.00;99.90;;;;;;5034605;28;20481;-78
2023/03/13 10:57:57;;;;;;;3.92;2.10;;;14.10;99.90;;;;;;5024283;28;20499;-80
2023/03/13 11:00:38;;;;;;;2.90;1.35;;;14.10;99.90;;;;;;5052264;28;20477;-77
2023/03/13 11:03:13;;;;;;;2.83;1.25;;;14.10;99.90;;;;;;5050382;28;20490;-77
2023/03/13 11:05:43;;;;;;;3.03;1.47;;;14.20;99.90;;;;;;5042160;28;20048;-79
2023/03/13 11:08:14;;;;;;;4.40;2.03;;;14.30;99.90;;;;;;5034488;28;20442;-78
2023/03/13 11:10:58;;;;;;;3.70;1.50;;;14.40;99.90;;;;;;5043033;28;20055;-78
2023/03/13 11:13:30;;;;;;;4.80;1.60;;;14.40;99.90;;;;;;5033753;28;20037;-79
2023/03/13 11:16:08;;;;;;;3.67;1.60;;;14.40;99.90;;;;;;5042602;28;20044;-81
2023/03/13 11:18:40;;;;;;;2.78;1.40;;;14.40;99.90;;;;;;5025812;28;20037;-81
2023/03/13 11:21:12;;;;;;;3.30;1.48;;;14.60;99.90;;;;;;5009854;28;20075;-84
2023/03/13 11:23:48;;;;;;;3.28;1.30;;;14.70;99.90;;;;;;5033392;28;20057;-78
2023/03/13 11:26:35;;;;;;;2.85;1.17;;;14.90;99.90;;;;;;5051681;28;20045;-79
2023/03/13 11:29:24;;;;;;;2.53;1.15;;;15.00;99.90;;;;;;5034000;28;20128;-70
2023/03/13 11:32:01;;;;;;;2.70;1.00;;;15.20;99.90;;;;;;5033061;28;20508;-70
2023/03/13 11:34:42;;;;;;;1.83;0.90;;;15.40;99.90;;;;;;5051284;28;20049;-70
2023/03/13 11:37:13;;;;;;;3.08;0.90;;;15.50;99.90;;;;;;5030188;28;20037;-71
2023/03/13 11:40:13;;;;;;;2.50;0.75;;;15.50;99.90;;;;;;5033483;28;20087;-72
2023/03/13 11:43:17;;;;;;;3.40;1.00;;;15.60;99.90;;;;;;5046638;28;20060;-70
2023/03/13 11:46:18;;;;;;;3.53;1.17;;;15.50;99.90;;;;;;5062963;28;20055;-71
2023/03/13 11:48:59;;;;;;;2.08;1.00;;;15.50;99.90;;;;;;5050953;28;20037;-71
2023/03/13 11:51:28;;;;;;;2.75;1.10;;;15.60;99.90;;;;;;5020296;28;20041;-70
2023/03/13 11:54:09;;;;;;;1.65;0.80;;;15.70;99.90;;;;;;5032773;28;20493;-70
2023/03/13 11:56:38;;;;;;;2.33;0.73;;;15.70;99.90;;;;;;5033905;28;20048;-70
2023/03/13 11:59:15;;;;;;;2.28;0.93;;;15.80;99.90;;;;;;5027484;28;20041;-82
2023/03/13 12:01:45;;;;;;;2.13;0.98;;;16.00;99.90;;;;;;5030387;28;20049;-83
2023/03/13 12:04:20;;;;;;;2.95;1.00;;;16.00;99.90;;;;;;5051581;28;20084;-84
2023/03/13 12:06:50;;;;;;;1.90;1.13;;;16.10;99.90;;;;;;5052781;28;20128;-81
2023/03/13 12:09:27;;;;;;;2.22;0.90;;;16.30;99.90;;;;;;5056155;28;20378;-82
2023/03/13 12:12:03;;;;;;;2.58;1.00;;;16.20;99.90;;;;;;5039369;28;20059;-81
2023/03/13 12:14:47;;;;;;;2.05;0.80;;;16.30;99.90;;;;;;5017456;28;20049;-85
2023/03/13 12:17:31;;;;;;;3.28;1.10;;;16.40;99.90;;;;;;5030438;28;20132;-80
2023/03/13 12:20:25;;;;;;;2.10;1.00;;;16.40;99.90;;;;;;5032118;28;20057;-82
2023/03/13 12:22:55;;;;;;;2.67;1.20;;;16.20;99.90;;;;;;5046913;28;20063;-84
2023/03/13 12:25:27;;;;;;;2.03;1.00;;;16.20;99.90;;;;;;5031525;28;20049;-77
2023/03/13 12:28:00;;;;;;;2.40;1.00;;;16.10;99.90;;;;;;5049149;28;20045;-79
2023/03/13 12:30:47;;;;;;;3.33;1.10;;;16.10;99.90;;;;;;5031768;28;20044;-80
2023/03/13 12:33:28;;;;;;;2.53;1.15;;;16.40;99.90;;;;;;5027691;28;20052;-78
2023/03/13 12:36:16;;;;;;;3.35;1.00;;;16.40;99.90;;;;;;5015247;28;20056;-83
2023/03/13 12:38:57;;;;;;;2.88;0.90;;;16.40;99.90;;;;;;5042522;28;20044;-83
2023/03/13 12:41:40;;;;;;;2.47;0.80;;;16.30;99.90;;;;;;5032186;28;20154;-80
2023/03/13 12:44:10;;;;;;;1.48;0.70;;;16.40;99.90;;;;;;5045616;28;20128;-82
2023/03/13 12:46:57;;;;;;;2.17;0.93;;;16.40;99.90;;;;;;5041140;28;20085;-84
2023/03/13 12:49:31;;;;;;;2.88;0.90;;;16.60;99.90;;;;;;5021658;28;20041;-84
2023/03/13 12:52:03;;;;;;;1.90;1.00;;;17.00;99.90;;;;;;4997328;28;20058;-84
2023/03/13 12:54:38;;;;;;;2.03;0.65;;;17.30;99.90;;;;;;5031636;28;20049;-74
2023/03/13 12:57:40;;;;;;;1.85;0.80;;;17.30;99.90;;;;;;5031110;28;20084;-81
2023/03/13 13:00:19;;;;;;;3.67;1.20;;;16.90;99.90;;;;;;5015332;28;20465;-77
2023/03/13 13:02:45;;;;;;;1.52;0.80;;;16.70;99.90;;;;;;5031708;28;20056;-87